sensor_id;sensor_type;location;lat;lon;timestamp;P1;durP1;ratioP1;P2;durP2;ratioP2
32399;SDS011;45045;45.440;9.178;2022-08-21T00:02:02;4.63;;;2.40;;
32399;SDS011;45045;45.440;9.178;2022-08-21T00:04:29;3.67;;;1.92;;
32399;SDS011;45045;45.440;9.178;2022-08-21T00:06:55;4.78;;;2.05;;
32399;SDS011;45045;45.440;9.178;2022-08-21T00:09:22;4.68;;;1.90;;
32399;SDS011;45045;45.440;9.178;2022-08-21T00:11:48;4.65;;;1.70;;
32399;SDS011;45045;45.440;9.178;2022-08-21T00:14:14;3.92;;;1.60;;
32399;SDS011;45045;45.440;9.178;2022-08-21T00:16:40;3.83;;;1.80;;
32399;SDS011;45045;45.440;9.178;2022-08-21T00:19:06;3.17;;;1.60;;
32399;SDS011;45045;45.440;9.178;2022-08-21T00:21:34;4.32;;;1.50;;
32399;SDS011;45045;45.440;9.178;2022-08-21T00:24:00;3.53;;;1.63;;
32399;SDS011;45045;45.440;9.178;2022-08-21T00:26:26;3.90;;;1.75;;
32399;SDS011;45045;45.440;9.178;2022-08-21T00:28:52;4.13;;;1.95;;
32399;SDS011;45045;45.440;9.178;2022-08-21T00:31:18;5.80;;;2.50;;
32399;SDS011;45045;45.440;9.178;2022-08-21T00:33:44;5.50;;;2.55;;
32399;SDS011;45045;45.440;9.178;2022-08-21T00:36:10;4.60;;;2.20;;
32399;SDS011;45045;45.440;9.178;2022-08-21T00:38:37;7.07;;;3.22;;
32399;SDS011;45045;45.440;9.178;2022-08-21T00:41:04;6.65;;;3.15;;
32399;SDS011;45045;45.440;9.178;2022-08-21T00:43:33;6.00;;;2.85;;
32399;SDS011;45045;45.440;9.178;2022-08-21T00:46:00;4.88;;;2.33;;
32399;SDS011;45045;45.440;9.178;2022-08-21T00:48:27;3.92;;;1.90;;
32399;SDS011;45045;45.440;9.178;2022-08-21T00:51:14;4.50;;;2.17;;
32399;SDS011;45045;45.440;9.178;2022-08-21T00:53:48;4.85;;;2.05;;
32399;SDS011;45045;45.440;9.178;2022-08-21T00:56:17;4.40;;;1.80;;
32399;SDS011;45045;45.440;9.178;2022-08-21T00:58:43;6.18;;;1.77;;
32399;SDS011;45045;45.440;9.178;2022-08-21T01:01:11;2.78;;;1.38;;
32399;SDS011;45045;45.440;9.178;2022-08-21T01:03:37;2.85;;;1.25;;
32399;SDS011;45045;45.440;9.178;2022-08-21T01:06:03;3.92;;;1.48;;
32399;SDS011;45045;45.440;9.178;2022-08-21T01:08:30;3.60;;;1.55;;
32399;SDS011;45045;45.440;9.178;2022-08-21T01:10:57;3.15;;;1.30;;
32399;SDS011;45045;45.440;9.178;2022-08-21T01:13:24;4.53;;;1.33;;
32399;SDS011;45045;45.440;9.178;2022-08-21T01:15:51;2.80;;;1.23;;
32399;SDS011;45045;45.440;9.178;2022-08-21T01:18:19;4.53;;;1.52;;
32399;SDS011;45045;45.440;9.178;2022-08-21T01:21:20;4.57;;;1.50;;
32399;SDS011;45045;45.440;9.178;2022-08-21T01:23:39;3.85;;;1.30;;
32399;SDS011;45045;45.440;9.178;2022-08-21T01:26:08;3.28;;;1.30;;
32399;SDS011;45045;45.440;9.178;2022-08-21T01:28:37;2.50;;;1.05;;
32399;SDS011;45045;45.440;9.178;2022-08-21T01:31:07;3.17;;;1.27;;
32399;SDS011;45045;45.440;9.178;2022-08-21T01:33:35;4.80;;;1.30;;
32399;SDS011;45045;45.440;9.178;2022-08-21T01:36:01;4.15;;;1.30;;
32399;SDS011;45045;45.440;9.178;2022-08-21T01:38:27;4.22;;;1.40;;
32399;SDS011;45045;45.440;9.178;2022-08-21T01:40:53;3.00;;;1.30;;
32399;SDS011;45045;45.440;9.178;2022-08-21T01:43:19;2.60;;;1.35;;
32399;SDS011;45045;45.440;9.178;2022-08-21T01:45:44;3.55;;;1.38;;
32399;SDS011;45045;45.440;9.178;2022-08-21T01:48:10;3.53;;;1.20;;
32399;SDS011;45045;45.440;9.178;2022-08-21T01:50:36;4.00;;;1.50;;
32399;SDS011;45045;45.440;9.178;2022-08-21T01:53:02;3.80;;;1.42;;
32399;SDS011;45045;45.440;9.178;2022-08-21T01:55:28;4.53;;;1.30;;
32399;SDS011;45045;45.440;9.178;2022-08-21T01:57:54;3.08;;;1.58;;
32399;SDS011;45045;45.440;9.178;2022-08-21T02:00:20;6.55;;;1.65;;
32399;SDS011;45045;45.440;9.178;2022-08-21T02:02:48;3.22;;;1.42;;
32399;SDS011;45045;45.440;9.178;2022-08-21T02:05:14;4.07;;;1.10;;
32399;SDS011;45045;45.440;9.178;2022-08-21T02:07:42;4.55;;;1.58;;
32399;SDS011;45045;45.440;9.178;2022-08-21T02:10:13;3.28;;;1.60;;
32399;SDS011;45045;45.440;9.178;2022-08-21T02:12:40;4.15;;;1.25;;
32399;SDS011;45045;45.440;9.178;2022-08-21T02:15:06;3.97;;;1.50;;
32399;SDS011;45045;45.440;9.178;2022-08-21T02:17:37;3.55;;;1.23;;
32399;SDS011;45045;45.440;9.178;2022-08-21T02:20:12;5.07;;;1.50;;
32399;SDS011;45045;45.440;9.178;2022-08-21T02:25:07;3.95;;;1.60;;
32399;SDS011;45045;45.440;9.178;2022-08-21T02:27:40;3.33;;;1.60;;
32399;SDS011;45045;45.440;9.178;2022-08-21T02:30:10;4.28;;;1.30;;
32399;SDS011;45045;45.440;9.178;2022-08-21T02:32:37;6.03;;;1.70;;
32399;SDS011;45045;45.440;9.178;2022-08-21T02:35:03;3.28;;;1.40;;
32399;SDS011;45045;45.440;9.178;2022-08-21T02:37:29;4.25;;;1.90;;
32399;SDS011;45045;45.440;9.178;2022-08-21T02:39:55;6.75;;;1.95;;
32399;SDS011;45045;45.440;9.178;2022-08-21T02:42:20;4.40;;;1.55;;
32399;SDS011;45045;45.440;9.178;2022-08-21T02:44:46;2.97;;;1.20;;
32399;SDS011;45045;45.440;9.178;2022-08-21T02:47:13;5.53;;;1.38;;
32399;SDS011;45045;45.440;9.178;2022-08-21T02:49:39;3.75;;;1.20;;
32399;SDS011;45045;45.440;9.178;2022-08-21T02:52:05;3.20;;;1.15;;
32399;SDS011;45045;45.440;9.178;2022-08-21T02:54:30;2.08;;;0.93;;
32399;SDS011;45045;45.440;9.178;2022-08-21T02:56:56;2.70;;;1.10;;
32399;SDS011;45045;45.440;9.178;2022-08-21T02:59:22;3.65;;;1.35;;
32399;SDS011;45045;45.440;9.178;2022-08-21T03:01:48;4.13;;;1.40;;
32399;SDS011;45045;45.440;9.178;2022-08-21T03:04:13;3.58;;;1.42;;
32399;SDS011;45045;45.440;9.178;2022-08-21T03:06:39;5.00;;;1.27;;
32399;SDS011;45045;45.440;9.178;2022-08-21T03:09:05;3.28;;;1.70;;
32399;SDS011;45045;45.440;9.178;2022-08-21T03:11:30;3.28;;;1.15;;
32399;SDS011;45045;45.440;9.178;2022-08-21T03:13:56;3.45;;;1.10;;
32399;SDS011;45045;45.440;9.178;2022-08-21T03:16:25;3.90;;;1.88;;
32399;SDS011;45045;45.440;9.178;2022-08-21T03:18:50;5.50;;;2.60;;
32399;SDS011;45045;45.440;9.178;2022-08-21T03:21:16;4.38;;;2.03;;
32399;SDS011;45045;45.440;9.178;2022-08-21T03:23:43;6.25;;;2.90;;
32399;SDS011;45045;45.440;9.178;2022-08-21T03:26:09;7.28;;;2.83;;
32399;SDS011;45045;45.440;9.178;2022-08-21T03:28:39;4.15;;;2.50;;
32399;SDS011;45045;45.440;9.178;2022-08-21T03:31:04;5.43;;;2.90;;
32399;SDS011;45045;45.440;9.178;2022-08-21T03:33:30;4.75;;;2.60;;
32399;SDS011;45045;45.440;9.178;2022-08-21T03:35:58;4.30;;;2.70;;
32399;SDS011;45045;45.440;9.178;2022-08-21T03:38:32;5.25;;;2.67;;
32399;SDS011;45045;45.440;9.178;2022-08-21T03:40:58;4.00;;;2.70;;
32399;SDS011;45045;45.440;9.178;2022-08-21T03:43:25;5.65;;;2.65;;
32399;SDS011;45045;45.440;9.178;2022-08-21T03:45:51;5.28;;;2.83;;
32399;SDS011;45045;45.440;9.178;2022-08-21T03:48:17;4.78;;;2.88;;
32399;SDS011;45045;45.440;9.178;2022-08-21T03:50:43;5.45;;;2.90;;
32399;SDS011;45045;45.440;9.178;2022-08-21T03:53:12;4.75;;;3.33;;
32399;SDS011;45045;45.440;9.178;2022-08-21T03:55:39;6.35;;;3.70;;
32399;SDS011;45045;45.440;9.178;2022-08-21T03:58:04;4.95;;;3.53;;
32399;SDS011;45045;45.440;9.178;2022-08-21T04:00:30;5.90;;;4.10;;
32399;SDS011;45045;45.440;9.178;2022-08-21T04:02:56;6.03;;;4.47;;
32399;SDS011;45045;45.440;9.178;2022-08-21T04:05:22;7.45;;;4.05;;
32399;SDS011;45045;45.440;9.178;2022-08-21T04:07:58;7.68;;;3.80;;
32399;SDS011;45045;45.440;9.178;2022-08-21T04:10:26;4.60;;;3.20;;
32399;SDS011;45045;45.440;9.178;2022-08-21T04:12:53;6.25;;;3.10;;
32399;SDS011;45045;45.440;9.178;2022-08-21T04:15:19;6.43;;;3.58;;
32399;SDS011;45045;45.440;9.178;2022-08-21T04:17:46;5.10;;;3.10;;
32399;SDS011;45045;45.440;9.178;2022-08-21T04:20:13;6.57;;;3.03;;
32399;SDS011;45045;45.440;9.178;2022-08-21T04:22:39;6.45;;;2.88;;
32399;SDS011;45045;45.440;9.178;2022-08-21T04:25:05;5.22;;;2.90;;
32399;SDS011;45045;45.440;9.178;2022-08-21T04:27:32;7.25;;;2.85;;
32399;SDS011;45045;45.440;9.178;2022-08-21T04:29:58;4.72;;;2.90;;
32399;SDS011;45045;45.440;9.178;2022-08-21T04:32:25;4.70;;;2.72;;
32399;SDS011;45045;45.440;9.178;2022-08-21T04:35:03;4.85;;;2.53;;
32399;SDS011;45045;45.440;9.178;2022-08-21T04:37:31;5.07;;;2.72;;
32399;SDS011;45045;45.440;9.178;2022-08-21T04:39:56;4.55;;;2.08;;
32399;SDS011;45045;45.440;9.178;2022-08-21T04:42:23;5.00;;;2.20;;
32399;SDS011;45045;45.440;9.178;2022-08-21T04:44:50;5.82;;;2.03;;
32399;SDS011;45045;45.440;9.178;2022-08-21T04:47:16;4.15;;;2.03;;
32399;SDS011;45045;45.440;9.178;2022-08-21T04:49:42;4.40;;;1.95;;
32399;SDS011;45045;45.440;9.178;2022-08-21T04:52:09;3.85;;;1.80;;
32399;SDS011;45045;45.440;9.178;2022-08-21T04:54:36;3.92;;;1.60;;
32399;SDS011;45045;45.440;9.178;2022-08-21T04:57:04;2.92;;;1.52;;
32399;SDS011;45045;45.440;9.178;2022-08-21T04:59:37;5.07;;;1.90;;
32399;SDS011;45045;45.440;9.178;2022-08-21T05:02:06;4.90;;;1.60;;
32399;SDS011;45045;45.440;9.178;2022-08-21T05:04:34;3.67;;;1.90;;
32399;SDS011;45045;45.440;9.178;2022-08-21T05:07:05;3.47;;;1.70;;
32399;SDS011;45045;45.440;9.178;2022-08-21T05:09:35;4.28;;;2.10;;
32399;SDS011;45045;45.440;9.178;2022-08-21T05:12:02;3.17;;;1.67;;
32399;SDS011;45045;45.440;9.178;2022-08-21T05:14:28;3.70;;;1.60;;
32399;SDS011;45045;45.440;9.178;2022-08-21T05:16:54;4.10;;;1.40;;
32399;SDS011;45045;45.440;9.178;2022-08-21T05:19:20;4.07;;;1.73;;
32399;SDS011;45045;45.440;9.178;2022-08-21T05:21:46;4.40;;;1.90;;
32399;SDS011;45045;45.440;9.178;2022-08-21T05:24:12;5.38;;;1.88;;
32399;SDS011;45045;45.440;9.178;2022-08-21T05:26:38;6.45;;;1.83;;
32399;SDS011;45045;45.440;9.178;2022-08-21T05:29:04;4.85;;;2.00;;
32399;SDS011;45045;45.440;9.178;2022-08-21T05:31:30;3.72;;;1.67;;
32399;SDS011;45045;45.440;9.178;2022-08-21T05:33:56;5.30;;;1.88;;
32399;SDS011;45045;45.440;9.178;2022-08-21T05:36:22;4.35;;;2.28;;
32399;SDS011;45045;45.440;9.178;2022-08-21T05:38:48;5.55;;;2.80;;
32399;SDS011;45045;45.440;9.178;2022-08-21T05:41:13;4.80;;;2.47;;
32399;SDS011;45045;45.440;9.178;2022-08-21T05:43:40;7.28;;;3.22;;
32399;SDS011;45045;45.440;9.178;2022-08-21T05:46:06;4.40;;;2.38;;
32399;SDS011;45045;45.440;9.178;2022-08-21T05:48:33;5.72;;;2.15;;
32399;SDS011;45045;45.440;9.178;2022-08-21T05:51:04;6.25;;;2.08;;
32399;SDS011;45045;45.440;9.178;2022-08-21T05:53:34;4.20;;;2.20;;
32399;SDS011;45045;45.440;9.178;2022-08-21T05:56:00;7.15;;;2.03;;
32399;SDS011;45045;45.440;9.178;2022-08-21T05:58:28;7.68;;;2.40;;
32399;SDS011;45045;45.440;9.178;2022-08-21T06:00:55;5.43;;;1.80;;
32399;SDS011;45045;45.440;9.178;2022-08-21T06:03:25;5.10;;;1.88;;
32399;SDS011;45045;45.440;9.178;2022-08-21T06:05:53;5.05;;;2.17;;
32399;SDS011;45045;45.440;9.178;2022-08-21T06:08:19;4.88;;;2.20;;
32399;SDS011;45045;45.440;9.178;2022-08-21T06:10:46;3.15;;;1.77;;
32399;SDS011;45045;45.440;9.178;2022-08-21T06:13:14;6.95;;;2.15;;
32399;SDS011;45045;45.440;9.178;2022-08-21T06:15:41;3.70;;;1.83;;
32399;SDS011;45045;45.440;9.178;2022-08-21T06:18:07;5.10;;;2.10;;
32399;SDS011;45045;45.440;9.178;2022-08-21T06:20:33;6.35;;;1.70;;
32399;SDS011;45045;45.440;9.178;2022-08-21T06:22:59;4.35;;;1.75;;
32399;SDS011;45045;45.440;9.178;2022-08-21T06:25:26;6.97;;;1.90;;
32399;SDS011;45045;45.440;9.178;2022-08-21T06:27:52;5.40;;;2.00;;
32399;SDS011;45045;45.440;9.178;2022-08-21T06:30:18;4.53;;;1.90;;
32399;SDS011;45045;45.440;9.178;2022-08-21T06:32:44;5.00;;;2.00;;
32399;SDS011;45045;45.440;9.178;2022-08-21T06:35:10;4.95;;;2.17;;
32399;SDS011;45045;45.440;9.178;2022-08-21T06:37:36;6.40;;;1.70;;
32399;SDS011;45045;45.440;9.178;2022-08-21T06:40:05;3.28;;;1.40;;
32399;SDS011;45045;45.440;9.178;2022-08-21T06:42:31;3.55;;;1.80;;
32399;SDS011;45045;45.440;9.178;2022-08-21T06:44:57;4.82;;;1.90;;
32399;SDS011;45045;45.440;9.178;2022-08-21T06:47:23;3.15;;;1.40;;
32399;SDS011;45045;45.440;9.178;2022-08-21T06:49:49;3.13;;;1.45;;
32399;SDS011;45045;45.440;9.178;2022-08-21T06:52:14;4.95;;;1.80;;
32399;SDS011;45045;45.440;9.178;2022-08-21T06:54:40;3.95;;;1.70;;
32399;SDS011;45045;45.440;9.178;2022-08-21T06:57:06;4.93;;;1.83;;
32399;SDS011;45045;45.440;9.178;2022-08-21T06:59:32;3.92;;;1.50;;
32399;SDS011;45045;45.440;9.178;2022-08-21T07:01:58;3.88;;;1.50;;
32399;SDS011;45045;45.440;9.178;2022-08-21T07:04:24;3.97;;;1.70;;
32399;SDS011;45045;45.440;9.178;2022-08-21T07:06:50;4.40;;;2.00;;
32399;SDS011;45045;45.440;9.178;2022-08-21T07:09:16;6.25;;;1.90;;
32399;SDS011;45045;45.440;9.178;2022-08-21T07:11:42;3.38;;;1.70;;
32399;SDS011;45045;45.440;9.178;2022-08-21T07:14:08;5.00;;;1.48;;
32399;SDS011;45045;45.440;9.178;2022-08-21T07:16:34;4.45;;;1.92;;
32399;SDS011;45045;45.440;9.178;2022-08-21T07:19:00;4.05;;;2.25;;
32399;SDS011;45045;45.440;9.178;2022-08-21T07:21:26;6.05;;;1.83;;
32399;SDS011;45045;45.440;9.178;2022-08-21T07:23:52;3.97;;;1.70;;
32399;SDS011;45045;45.440;9.178;2022-08-21T07:26:19;4.07;;;1.55;;
32399;SDS011;45045;45.440;9.178;2022-08-21T07:28:47;4.78;;;1.83;;
32399;SDS011;45045;45.440;9.178;2022-08-21T07:31:15;3.97;;;1.42;;
32399;SDS011;45045;45.440;9.178;2022-08-21T07:33:42;3.90;;;1.50;;
32399;SDS011;45045;45.440;9.178;2022-08-21T07:36:08;3.25;;;1.60;;
32399;SDS011;45045;45.440;9.178;2022-08-21T07:38:35;4.70;;;1.50;;
32399;SDS011;45045;45.440;9.178;2022-08-21T07:41:01;4.38;;;1.67;;
32399;SDS011;45045;45.440;9.178;2022-08-21T07:43:31;4.63;;;1.90;;
32399;SDS011;45045;45.440;9.178;2022-08-21T07:45:57;4.13;;;2.20;;
32399;SDS011;45045;45.440;9.178;2022-08-21T07:48:23;3.95;;;1.40;;
32399;SDS011;45045;45.440;9.178;2022-08-21T07:50:49;4.10;;;1.75;;
32399;SDS011;45045;45.440;9.178;2022-08-21T07:53:15;3.83;;;1.33;;
32399;SDS011;45045;45.440;9.178;2022-08-21T07:55:41;7.35;;;1.90;;
32399;SDS011;45045;45.440;9.178;2022-08-21T07:58:07;5.78;;;1.88;;
32399;SDS011;45045;45.440;9.178;2022-08-21T08:00:33;3.00;;;1.00;;
32399;SDS011;45045;45.440;9.178;2022-08-21T08:02:59;4.78;;;1.55;;
32399;SDS011;45045;45.440;9.178;2022-08-21T08:05:26;3.72;;;1.50;;
32399;SDS011;45045;45.440;9.178;2022-08-21T08:07:54;3.75;;;1.50;;
32399;SDS011;45045;45.440;9.178;2022-08-21T08:10:20;5.90;;;1.35;;
32399;SDS011;45045;45.440;9.178;2022-08-21T08:12:46;2.80;;;1.23;;
32399;SDS011;45045;45.440;9.178;2022-08-21T08:15:16;3.63;;;1.45;;
32399;SDS011;45045;45.440;9.178;2022-08-21T08:20:10;3.17;;;1.20;;
32399;SDS011;45045;45.440;9.178;2022-08-21T08:22:37;3.47;;;1.30;;
32399;SDS011;45045;45.440;9.178;2022-08-21T08:25:04;1.98;;;1.20;;
32399;SDS011;45045;45.440;9.178;2022-08-21T08:27:31;2.33;;;1.05;;
32399;SDS011;45045;45.440;9.178;2022-08-21T08:29:56;3.40;;;1.20;;
32399;SDS011;45045;45.440;9.178;2022-08-21T08:32:23;3.47;;;1.10;;
32399;SDS011;45045;45.440;9.178;2022-08-21T08:34:49;3.42;;;1.10;;
32399;SDS011;45045;45.440;9.178;2022-08-21T08:37:16;2.22;;;0.95;;
32399;SDS011;45045;45.440;9.178;2022-08-21T08:39:44;4.00;;;0.90;;
32399;SDS011;45045;45.440;9.178;2022-08-21T08:42:13;2.25;;;0.90;;
32399;SDS011;45045;45.440;9.178;2022-08-21T08:44:46;2.17;;;0.90;;
32399;SDS011;45045;45.440;9.178;2022-08-21T08:47:13;2.55;;;1.00;;
32399;SDS011;45045;45.440;9.178;2022-08-21T08:50:28;2.08;;;0.85;;
32399;SDS011;45045;45.440;9.178;2022-08-21T08:52:31;2.38;;;1.00;;
32399;SDS011;45045;45.440;9.178;2022-08-21T08:57:33;3.70;;;1.05;;
32399;SDS011;45045;45.440;9.178;2022-08-21T09:00:00;3.30;;;1.02;;
32399;SDS011;45045;45.440;9.178;2022-08-21T09:02:29;2.70;;;1.10;;
32399;SDS011;45045;45.440;9.178;2022-08-21T09:04:55;3.45;;;1.20;;
32399;SDS011;45045;45.440;9.178;2022-08-21T09:15:16;2.25;;;1.08;;
32399;SDS011;45045;45.440;9.178;2022-08-21T09:20:41;2.47;;;1.00;;
32399;SDS011;45045;45.440;9.178;2022-08-21T09:26:26;3.35;;;1.10;;
32399;SDS011;45045;45.440;9.178;2022-08-21T09:28:56;1.98;;;0.90;;
32399;SDS011;45045;45.440;9.178;2022-08-21T09:31:34;5.05;;;1.00;;
32399;SDS011;45045;45.440;9.178;2022-08-21T09:34:07;3.55;;;1.10;;
32399;SDS011;45045;45.440;9.178;2022-08-21T09:36:43;2.33;;;1.10;;
32399;SDS011;45045;45.440;9.178;2022-08-21T09:39:12;2.97;;;1.27;;
32399;SDS011;45045;45.440;9.178;2022-08-21T09:41:49;2.05;;;1.10;;
32399;SDS011;45045;45.440;9.178;2022-08-21T09:44:29;2.60;;;1.20;;
32399;SDS011;45045;45.440;9.178;2022-08-21T09:46:57;3.53;;;1.33;;
32399;SDS011;45045;45.440;9.178;2022-08-21T09:49:27;4.90;;;1.52;;
32399;SDS011;45045;45.440;9.178;2022-08-21T09:51:56;3.70;;;1.25;;
32399;SDS011;45045;45.440;9.178;2022-08-21T09:54:29;2.50;;;1.30;;
32399;SDS011;45045;45.440;9.178;2022-08-21T09:56:59;3.95;;;1.63;;
32399;SDS011;45045;45.440;9.178;2022-08-21T09:59:48;3.30;;;1.77;;
32399;SDS011;45045;45.440;9.178;2022-08-21T10:02:20;2.83;;;1.33;;
32399;SDS011;45045;45.440;9.178;2022-08-21T10:04:54;2.58;;;1.30;;
32399;SDS011;45045;45.440;9.178;2022-08-21T10:07:22;3.20;;;1.23;;
32399;SDS011;45045;45.440;9.178;2022-08-21T10:09:59;2.88;;;1.48;;
32399;SDS011;45045;45.440;9.178;2022-08-21T10:12:28;4.35;;;1.55;;
32399;SDS011;45045;45.440;9.178;2022-08-21T10:15:22;3.58;;;1.20;;
32399;SDS011;45045;45.440;9.178;2022-08-21T10:26:57;2.10;;;1.00;;
32399;SDS011;45045;45.440;9.178;2022-08-21T10:46:15;1.80;;;0.90;;
32399;SDS011;45045;45.440;9.178;2022-08-21T10:57:27;1.92;;;0.70;;
32399;SDS011;45045;45.440;9.178;2022-08-21T11:00:35;3.83;;;0.88;;
32399;SDS011;45045;45.440;9.178;2022-08-21T11:03:13;2.17;;;0.82;;
32399;SDS011;45045;45.440;9.178;2022-08-21T11:08:40;3.55;;;0.90;;
32399;SDS011;45045;45.440;9.178;2022-08-21T11:18:53;3.22;;;0.70;;
32399;SDS011;45045;45.440;9.178;2022-08-21T11:21:27;1.55;;;0.65;;
32399;SDS011;45045;45.440;9.178;2022-08-21T11:29:40;3.35;;;0.77;;
32399;SDS011;45045;45.440;9.178;2022-08-21T11:57:26;2.38;;;0.95;;
32399;SDS011;45045;45.440;9.178;2022-08-21T12:00:19;2.08;;;0.70;;
32399;SDS011;45045;45.440;9.178;2022-08-21T12:02:51;5.57;;;0.82;;
32399;SDS011;45045;45.440;9.178;2022-08-21T12:05:39;1.60;;;0.75;;
32399;SDS011;45045;45.440;9.178;2022-08-21T12:08:15;1.83;;;0.60;;
32399;SDS011;45045;45.440;9.178;2022-08-21T12:11:09;1.67;;;0.57;;
32399;SDS011;45045;45.440;9.178;2022-08-21T12:13:53;3.42;;;0.77;;
32399;SDS011;45045;45.440;9.178;2022-08-21T12:16:35;1.52;;;0.50;;
32399;SDS011;45045;45.440;9.178;2022-08-21T12:19:03;1.27;;;0.70;;
32399;SDS011;45045;45.440;9.178;2022-08-21T12:21:52;2.17;;;0.70;;
32399;SDS011;45045;45.440;9.178;2022-08-21T12:24:19;2.00;;;0.80;;
32399;SDS011;45045;45.440;9.178;2022-08-21T12:27:17;1.48;;;0.60;;
32399;SDS011;45045;45.440;9.178;2022-08-21T12:29:58;2.25;;;0.50;;
32399;SDS011;45045;45.440;9.178;2022-08-21T12:32:28;2.10;;;0.70;;
32399;SDS011;45045;45.440;9.178;2022-08-21T12:35:07;3.00;;;0.55;;
32399;SDS011;45045;45.440;9.178;2022-08-21T12:37:44;2.25;;;0.52;;
32399;SDS011;45045;45.440;9.178;2022-08-21T12:40:31;4.55;;;2.03;;
32399;SDS011;45045;45.440;9.178;2022-08-21T12:43:03;1.20;;;0.57;;
32399;SDS011;45045;45.440;9.178;2022-08-21T12:45:33;1.52;;;0.50;;
32399;SDS011;45045;45.440;9.178;2022-08-21T12:48:13;1.30;;;0.50;;
32399;SDS011;45045;45.440;9.178;2022-08-21T12:51:05;1.48;;;0.40;;
32399;SDS011;45045;45.440;9.178;2022-08-21T12:53:38;2.85;;;0.68;;
32399;SDS011;45045;45.440;9.178;2022-08-21T12:56:18;2.95;;;0.70;;
32399;SDS011;45045;45.440;9.178;2022-08-21T13:04:20;1.92;;;0.50;;
32399;SDS011;45045;45.440;9.178;2022-08-21T13:06:50;2.15;;;0.57;;
32399;SDS011;45045;45.440;9.178;2022-08-21T13:09:19;1.77;;;0.70;;
32399;SDS011;45045;45.440;9.178;2022-08-21T13:11:50;1.48;;;0.80;;
32399;SDS011;45045;45.440;9.178;2022-08-21T13:14:30;2.00;;;0.82;;
32399;SDS011;45045;45.440;9.178;2022-08-21T13:17:00;1.45;;;0.50;;
32399;SDS011;45045;45.440;9.178;2022-08-21T13:19:29;3.33;;;0.52;;
32399;SDS011;45045;45.440;9.178;2022-08-21T13:21:55;1.08;;;0.40;;
32399;SDS011;45045;45.440;9.178;2022-08-21T13:24:22;1.75;;;0.60;;
32399;SDS011;45045;45.440;9.178;2022-08-21T13:26:53;1.58;;;0.75;;
32399;SDS011;45045;45.440;9.178;2022-08-21T13:29:20;1.92;;;0.60;;
32399;SDS011;45045;45.440;9.178;2022-08-21T13:31:52;1.67;;;0.68;;
32399;SDS011;45045;45.440;9.178;2022-08-21T13:34:22;1.45;;;0.50;;
32399;SDS011;45045;45.440;9.178;2022-08-21T13:36:51;1.55;;;0.50;;
32399;SDS011;45045;45.440;9.178;2022-08-21T13:39:20;2.10;;;0.70;;
32399;SDS011;45045;45.440;9.178;2022-08-21T13:41:48;1.45;;;0.65;;
32399;SDS011;45045;45.440;9.178;2022-08-21T13:44:21;1.37;;;0.50;;
32399;SDS011;45045;45.440;9.178;2022-08-21T13:47:06;2.33;;;0.75;;
32399;SDS011;45045;45.440;9.178;2022-08-21T13:49:36;0.65;;;0.45;;
32399;SDS011;45045;45.440;9.178;2022-08-21T13:52:04;1.67;;;0.63;;
32399;SDS011;45045;45.440;9.178;2022-08-21T13:54:39;1.63;;;0.60;;
32399;SDS011;45045;45.440;9.178;2022-08-21T13:57:17;1.25;;;0.50;;
32399;SDS011;45045;45.440;9.178;2022-08-21T13:59:44;3.03;;;0.80;;
32399;SDS011;45045;45.440;9.178;2022-08-21T14:02:14;2.65;;;0.60;;
32399;SDS011;45045;45.440;9.178;2022-08-21T14:04:57;2.17;;;0.60;;
32399;SDS011;45045;45.440;9.178;2022-08-21T14:07:28;2.67;;;0.50;;
32399;SDS011;45045;45.440;9.178;2022-08-21T14:10:04;1.23;;;0.52;;
32399;SDS011;45045;45.440;9.178;2022-08-21T14:12:56;3.22;;;0.70;;
32399;SDS011;45045;45.440;9.178;2022-08-21T14:15:32;1.52;;;0.60;;
32399;SDS011;45045;45.440;9.178;2022-08-21T14:18:13;2.72;;;0.60;;
32399;SDS011;45045;45.440;9.178;2022-08-21T14:20:41;2.63;;;0.55;;
32399;SDS011;45045;45.440;9.178;2022-08-21T14:23:07;2.33;;;0.52;;
32399;SDS011;45045;45.440;9.178;2022-08-21T14:28:11;1.38;;;0.60;;
32399;SDS011;45045;45.440;9.178;2022-08-21T14:30:57;3.75;;;0.70;;
32399;SDS011;45045;45.440;9.178;2022-08-21T14:33:36;1.83;;;0.47;;
32399;SDS011;45045;45.440;9.178;2022-08-21T14:36:01;2.13;;;0.50;;
32399;SDS011;45045;45.440;9.178;2022-08-21T14:38:27;1.63;;;0.60;;
32399;SDS011;45045;45.440;9.178;2022-08-21T14:40:57;1.13;;;0.50;;
32399;SDS011;45045;45.440;9.178;2022-08-21T14:43:26;3.05;;;0.70;;
32399;SDS011;45045;45.440;9.178;2022-08-21T14:45:53;1.60;;;0.70;;
32399;SDS011;45045;45.440;9.178;2022-08-21T14:48:19;1.83;;;0.70;;
32399;SDS011;45045;45.440;9.178;2022-08-21T14:50:45;2.53;;;0.73;;
32399;SDS011;45045;45.440;9.178;2022-08-21T14:53:11;3.25;;;0.60;;
32399;SDS011;45045;45.440;9.178;2022-08-21T14:55:37;3.15;;;0.90;;
32399;SDS011;45045;45.440;9.178;2022-08-21T14:58:23;1.05;;;0.50;;
32399;SDS011;45045;45.440;9.178;2022-08-21T15:00:50;0.90;;;0.50;;
32399;SDS011;45045;45.440;9.178;2022-08-21T15:03:19;4.30;;;0.80;;
32399;SDS011;45045;45.440;9.178;2022-08-21T15:05:46;2.65;;;0.60;;
32399;SDS011;45045;45.440;9.178;2022-08-21T15:08:12;1.83;;;0.70;;
32399;SDS011;45045;45.440;9.178;2022-08-21T15:10:38;1.45;;;0.52;;
32399;SDS011;45045;45.440;9.178;2022-08-21T15:13:04;0.98;;;0.50;;
32399;SDS011;45045;45.440;9.178;2022-08-21T15:15:33;1.15;;;0.43;;
32399;SDS011;45045;45.440;9.178;2022-08-21T15:18:08;1.33;;;0.55;;
32399;SDS011;45045;45.440;9.178;2022-08-21T15:20:34;1.35;;;0.55;;
32399;SDS011;45045;45.440;9.178;2022-08-21T15:23:00;1.02;;;0.60;;
32399;SDS011;45045;45.440;9.178;2022-08-21T15:25:26;1.38;;;0.57;;
32399;SDS011;45045;45.440;9.178;2022-08-21T15:27:52;3.72;;;0.70;;
32399;SDS011;45045;45.440;9.178;2022-08-21T15:30:18;2.17;;;0.60;;
32399;SDS011;45045;45.440;9.178;2022-08-21T15:32:44;1.92;;;0.50;;
32399;SDS011;45045;45.440;9.178;2022-08-21T15:35:10;1.63;;;0.60;;
32399;SDS011;45045;45.440;9.178;2022-08-21T15:37:36;0.85;;;0.38;;
32399;SDS011;45045;45.440;9.178;2022-08-21T15:40:02;1.70;;;0.63;;
32399;SDS011;45045;45.440;9.178;2022-08-21T15:42:28;3.15;;;0.75;;
32399;SDS011;45045;45.440;9.178;2022-08-21T15:44:55;2.88;;;0.80;;
32399;SDS011;45045;45.440;9.178;2022-08-21T15:47:22;1.83;;;0.55;;
32399;SDS011;45045;45.440;9.178;2022-08-21T15:49:54;3.22;;;1.00;;
32399;SDS011;45045;45.440;9.178;2022-08-21T15:52:20;1.30;;;0.70;;
32399;SDS011;45045;45.440;9.178;2022-08-21T15:54:46;1.10;;;0.60;;
32399;SDS011;45045;45.440;9.178;2022-08-21T15:57:13;2.75;;;0.60;;
32399;SDS011;45045;45.440;9.178;2022-08-21T15:59:42;2.08;;;0.70;;
32399;SDS011;45045;45.440;9.178;2022-08-21T16:02:24;2.05;;;0.70;;
32399;SDS011;45045;45.440;9.178;2022-08-21T16:04:52;3.08;;;0.70;;
32399;SDS011;45045;45.440;9.178;2022-08-21T16:07:18;1.63;;;0.60;;
32399;SDS011;45045;45.440;9.178;2022-08-21T16:09:44;1.52;;;0.70;;
32399;SDS011;45045;45.440;9.178;2022-08-21T16:12:11;2.08;;;0.50;;
32399;SDS011;45045;45.440;9.178;2022-08-21T16:14:43;2.35;;;0.70;;
32399;SDS011;45045;45.440;9.178;2022-08-21T16:17:08;1.35;;;0.57;;
32399;SDS011;45045;45.440;9.178;2022-08-21T16:19:34;1.50;;;0.57;;
32399;SDS011;45045;45.440;9.178;2022-08-21T16:22:01;1.27;;;0.60;;
32399;SDS011;45045;45.440;9.178;2022-08-21T16:24:27;1.33;;;0.60;;
32399;SDS011;45045;45.440;9.178;2022-08-21T16:26:53;2.03;;;0.40;;
32399;SDS011;45045;45.440;9.178;2022-08-21T16:29:19;1.33;;;0.50;;
32399;SDS011;45045;45.440;9.178;2022-08-21T16:31:46;1.90;;;0.50;;
32399;SDS011;45045;45.440;9.178;2022-08-21T16:34:15;2.35;;;0.52;;
32399;SDS011;45045;45.440;9.178;2022-08-21T16:36:42;1.58;;;0.70;;
32399;SDS011;45045;45.440;9.178;2022-08-21T16:39:08;2.28;;;0.60;;
32399;SDS011;45045;45.440;9.178;2022-08-21T16:41:34;1.20;;;0.50;;
32399;SDS011;45045;45.440;9.178;2022-08-21T16:44:01;2.17;;;0.50;;
32399;SDS011;45045;45.440;9.178;2022-08-21T16:46:28;3.63;;;0.55;;